»·PEaware :: DAL250 KLAX-KSFO

DAL250 :: KLAX-KSFO

FLIGHT INFORMATION

Flight Status: Arrived
Operator:
Delta Air Lines
More flights by this operator :: More flights under this callsign
Pilot: Andrew Jones (13363)
Aircraft: AIRBUS A320
(A320)
More flights by this aircraft type
Origin: KLAX Los Angeles Intl
United States
Destination: KSFO San Francisco Intl
United States
More flights between these airports :: More routes between these airports
Route: VTU7 RZS STOKD SERFR WWAVS1
File this flight plan on PilotEdge
Remarks:
Altitude:
(Current/Filed)
34,000ft
Speed:
(Current/Filed)
460kts
Departed: 08-Jan-17 06:23 PM
Arrived: 08-Jan-17 07:31 PM
Distance/Time
Traveled:
293nm/1:08
Distance/Time
To Go:
Arrived

Flight Plot

Page will automatically refresh every two minutes.

Flight plan parsing failed; only flown route is shown


Map Options




Map Legend


Flown Route
Filed Route
Departure Airport
Arrival Airport
Navaid (VOR, NDB)
Fix

Horizontal Profiles

Position Reports

Time Latitude Longitude Heading Altitude Ground
Speed
08-Jan-17 17:53 33.939882 -118.403704 310 114ft 0kts
08-Jan-17 17:54 33.939882 -118.403704 310 114ft 0kts
08-Jan-17 17:55 33.939882 -118.403704 310 114ft 0kts
08-Jan-17 17:56 33.939882 -118.403704 310 114ft 0kts
08-Jan-17 17:57 33.939882 -118.403704 310 114ft 0kts
08-Jan-17 17:58 33.939882 -118.403704 310 114ft 0kts
08-Jan-17 17:59 33.939882 -118.403704 310 114ft 0kts
08-Jan-17 18:00 33.939882 -118.403704 310 114ft 0kts
08-Jan-17 18:01 33.939882 -118.403704 310 114ft 0kts
08-Jan-17 18:02 33.939882 -118.403704 310 114ft 0kts
08-Jan-17 18:03 33.939882 -118.403704 310 114ft 0kts
08-Jan-17 18:04 33.939882 -118.403704 310 114ft 0kts
08-Jan-17 18:05 33.939882 -118.403704 310 114ft 0kts
08-Jan-17 18:06 33.939882 -118.403704 310 114ft 0kts
08-Jan-17 18:07 33.939882 -118.403704 310 114ft 0kts
08-Jan-17 18:08 33.939882 -118.403704 310 114ft 0kts
08-Jan-17 18:09 33.939882 -118.403704 310 114ft 0kts
08-Jan-17 18:10 33.939825 -118.403623 305 114ft 1kts
08-Jan-17 18:11 33.939907 -118.403061 201 114ft 1kts
08-Jan-17 18:12 33.940065 -118.403059 172 114ft 0kts
08-Jan-17 18:13 33.939701 -118.402978 167 114ft 9kts
08-Jan-17 18:14 33.938679 -118.400777 82 114ft 11kts
08-Jan-17 18:15 33.939127 -118.396473 84 114ft 12kts
08-Jan-17 18:16 33.939671 -118.391455 81 114ft 17kts
08-Jan-17 18:17 33.939909 -118.388428 114 114ft 0kts
08-Jan-17 18:18 33.939909 -118.388428 114 114ft 0kts
08-Jan-17 18:19 33.939909 -118.388428 114 114ft 0kts
08-Jan-17 18:20 33.939909 -118.388428 114 114ft 0kts
08-Jan-17 18:21 33.939909 -118.388428 114 114ft 0kts
08-Jan-17 18:22 33.939041 -118.388208 246 114ft 5kts
08-Jan-17 18:23 33.936180 -118.415562 262 662ft 146kts
08-Jan-17 18:24 33.929774 -118.473553 262 2320ft 210kts
08-Jan-17 18:25 33.921183 -118.551977 260 5443ft 245kts
08-Jan-17 18:26 33.927639 -118.631025 303 8985ft 268kts
08-Jan-17 18:27 33.968670 -118.709662 291 11121ft 314kts
08-Jan-17 18:28 34.013379 -118.812305 290 13450ft 364kts
08-Jan-17 18:29 34.060352 -118.922492 289 16563ft 377kts
08-Jan-17 18:30 34.107629 -119.033923 289 19141ft 390kts
08-Jan-17 18:31 34.167876 -119.146556 295 21437ft 407kts
08-Jan-17 18:32 34.230636 -119.261810 295 23466ft 418kts
08-Jan-17 18:33 34.295578 -119.379730 294 25261ft 426kts
08-Jan-17 18:34 34.361584 -119.500662 294 26833ft 435kts
08-Jan-17 18:35 34.422529 -119.613624 294 28130ft 441kts
08-Jan-17 18:36 34.490271 -119.737960 294 29465ft 448kts
08-Jan-17 18:37 34.581277 -119.847455 308 30881ft 468kts
08-Jan-17 18:38 34.678518 -119.950674 308 32390ft 462kts
08-Jan-17 18:39 34.774054 -120.052477 308 33731ft 456kts
08-Jan-17 18:40 34.868799 -120.153862 308 33942ft 454kts
08-Jan-17 18:41 34.962838 -120.254812 307 33928ft 448kts
08-Jan-17 18:42 35.055645 -120.354790 306 33927ft 443kts
08-Jan-17 18:43 35.124076 -120.428687 306 33888ft 446kts
08-Jan-17 18:44 35.216073 -120.528890 306 33875ft 445kts
08-Jan-17 18:45 35.308376 -120.629070 306 33875ft 445kts
08-Jan-17 18:46 35.396692 -120.723833 305 33869ft 413kts
08-Jan-17 18:47 35.481043 -120.816039 306 33873ft 413kts
08-Jan-17 18:48 35.573949 -120.902489 309 33866ft 420kts
08-Jan-17 18:49 35.666846 -120.988750 309 33865ft 422kts
08-Jan-17 18:50 35.760404 -121.076574 308 33866ft 427kts
08-Jan-17 18:51 35.854970 -121.165117 308 33864ft 430kts
08-Jan-17 18:52 35.949249 -121.253692 307 33846ft 418kts
08-Jan-17 18:53 36.040903 -121.339654 308 33197ft 419kts
08-Jan-17 18:54 36.126754 -121.410952 313 31630ft 435kts
08-Jan-17 18:55 36.226941 -121.488973 314 29414ft 420kts
08-Jan-17 18:56 36.322494 -121.564001 314 27423ft 404kts
08-Jan-17 18:57 36.415614 -121.637242 314 25682ft 392kts
08-Jan-17 18:58 36.501198 -121.703409 314 24029ft 391kts
08-Jan-17 18:59 36.585778 -121.770631 314 22349ft 374kts
08-Jan-17 19:00 36.672044 -121.839022 315 20658ft 365kts
08-Jan-17 19:01 36.755907 -121.906304 307 18692ft 350kts
08-Jan-17 19:02 36.826545 -121.983412 307 17215ft 335kts
08-Jan-17 19:03 36.896610 -122.057476 308 15740ft 327kts
08-Jan-17 19:04 36.965230 -122.130148 309 14263ft 320kts
08-Jan-17 19:05 37.032718 -122.201615 309 12776ft 317kts
08-Jan-17 19:06 37.099781 -122.272819 309 11258ft 319kts
08-Jan-17 19:07 37.181335 -122.313226 336 11011ft 326kts
08-Jan-17 19:08 37.268568 -122.343295 336 11012ft 326kts
08-Jan-17 19:09 37.355164 -122.372959 336 10055ft 310kts
08-Jan-17 19:10 37.436458 -122.401457 337 8664ft 308kts
08-Jan-17 19:11 37.518551 -122.429619 337 7999ft 304kts
08-Jan-17 19:12 37.601616 -122.458438 338 6634ft 302kts
08-Jan-17 19:13 37.680674 -122.472316 13 6008ft 281kts
08-Jan-17 19:14 37.755345 -122.448083 11 5995ft 277kts
08-Jan-17 19:15 37.823717 -122.412124 23 5037ft 263kts
08-Jan-17 19:16 37.884823 -122.377824 24 4247ft 229kts
08-Jan-17 19:17 37.942074 -122.345668 23 3992ft 224kts
08-Jan-17 19:18 37.998650 -122.313893 27 3991ft 224kts
08-Jan-17 19:19 38.015177 -122.245944 93 3994ft 210kts
08-Jan-17 19:20 38.007295 -122.177895 153 3998ft 188kts
08-Jan-17 19:21 37.957662 -122.164967 173 3993ft 183kts
08-Jan-17 19:22 37.909770 -122.169319 214 4017ft 182kts
08-Jan-17 19:23 37.870963 -122.201380 208 3574ft 161kts
08-Jan-17 19:24 37.832790 -122.229185 206 3147ft 158kts
08-Jan-17 19:25 37.794131 -122.255792 204 2780ft 156kts
08-Jan-17 19:26 37.756168 -122.281331 202 2773ft 152kts
08-Jan-17 19:27 37.718605 -122.306419 204 2032ft 152kts
08-Jan-17 19:28 37.684960 -122.328818 205 1301ft 127kts
08-Jan-17 19:29 37.654701 -122.349262 200 604ft 116kts
08-Jan-17 19:30 37.625387 -122.368432 204 48ft 122kts
08-Jan-17 19:31 37.612910 -122.376668 262 24ft 12kts
08-Jan-17 19:32 37.613765 -122.380260 302 24ft 0kts
08-Jan-17 19:33 37.613463 -122.382469 294 24ft 6kts
08-Jan-17 19:34 37.614305 -122.382759 28 24ft 0kts
08-Jan-17 19:35 37.614305 -122.382759 28 24ft 0kts

Navigation Log

Ident Type
Flight plan parsing failed, navigation log unavailable